createdAt,value
2018-01-14T00:01:47.718Z,28.33
2018-01-14T00:04:15.247Z,26.00
2018-01-14T00:06:42.750Z,29.10
2018-01-14T00:09:10.648Z,27.07
2018-01-14T00:11:38.145Z,24.63
2018-01-14T00:14:05.637Z,31.20
2018-01-14T00:16:33.156Z,21.57
2018-01-14T00:19:00.732Z,28.23
2018-01-14T00:21:29.003Z,24.97
2018-01-14T00:23:56.485Z,27.57
2018-01-14T00:26:24.007Z,29.90
2018-01-14T00:28:51.497Z,33.37
2018-01-14T00:31:19.011Z,24.30
2018-01-14T00:33:46.502Z,28.80
2018-01-14T00:36:13.970Z,22.00
2018-01-14T00:38:41.466Z,31.50
2018-01-14T00:41:08.977Z,29.63
2018-01-14T00:43:36.457Z,22.83
2018-01-14T00:46:03.973Z,28.13
2018-01-14T00:48:32.250Z,24.67
2018-01-14T00:51:00.532Z,26.00
2018-01-14T00:53:28.087Z,21.33
2018-01-14T00:55:56.337Z,23.40
2018-01-14T00:58:23.842Z,25.70
2018-01-14T01:00:51.373Z,30.33
2018-01-14T01:03:19.634Z,26.03
2018-01-14T01:05:47.146Z,31.30
2018-01-14T01:08:14.637Z,24.07
2018-01-14T01:10:42.137Z,29.27
2018-01-14T01:13:10.397Z,29.40
2018-01-14T01:15:37.908Z,21.20
2018-01-14T01:18:05.403Z,30.83
2018-01-14T01:20:32.897Z,28.83
2018-01-14T01:23:00.489Z,31.30
2018-01-14T01:25:28.760Z,26.73
2018-01-14T01:27:56.263Z,30.77
2018-01-14T01:30:24.548Z,28.17
2018-01-14T01:32:52.799Z,35.50
2018-01-14T01:35:20.287Z,27.97
2018-01-14T01:37:48.761Z,32.93
2018-01-14T01:40:17.016Z,32.60
2018-01-14T01:42:44.527Z,35.83
2018-01-14T01:45:12.012Z,34.40
2018-01-14T01:47:39.512Z,28.93
2018-01-14T01:50:06.994Z,37.83
2018-01-14T01:52:34.484Z,33.83
2018-01-14T01:55:02.008Z,31.80
2018-01-14T01:57:29.489Z,35.20
2018-01-14T01:59:57.919Z,44.37
2018-01-14T02:02:26.200Z,31.17
2018-01-14T02:04:54.344Z,30.33
2018-01-14T02:07:22.459Z,30.83
2018-01-14T02:09:49.962Z,26.87
2018-01-14T02:12:17.502Z,32.23
2018-01-14T02:14:45.016Z,32.17
2018-01-14T02:17:13.331Z,38.07
2018-01-14T02:19:40.849Z,28.93
2018-01-14T02:22:09.077Z,32.90
2018-01-14T02:24:36.642Z,32.07
2018-01-14T02:27:04.116Z,39.23
2018-01-14T02:29:31.646Z,32.00
2018-01-14T02:31:59.158Z,35.17
2018-01-14T02:34:27.433Z,27.93
2018-01-14T02:36:55.695Z,24.90
2018-01-14T02:39:23.217Z,26.40
2018-01-14T02:41:51.473Z,31.27
2018-01-14T02:44:18.999Z,33.63
2018-01-14T02:46:47.248Z,33.60
2018-01-14T02:49:14.729Z,29.93
2018-01-14T02:51:42.569Z,34.10
2018-01-14T02:54:10.342Z,27.40
2018-01-14T02:56:37.843Z,25.37
2018-01-14T02:59:05.360Z,25.90
2018-01-14T03:01:32.861Z,28.47
2018-01-14T03:04:00.355Z,18.70
2018-01-14T03:06:27.847Z,27.30
2018-01-14T03:08:55.344Z,33.27
2018-01-14T03:11:22.855Z,25.63
2018-01-14T03:13:50.329Z,31.90
2018-01-14T03:16:18.592Z,19.73
2018-01-14T03:18:46.847Z,37.70
2018-01-14T03:21:14.357Z,33.47
2018-01-14T03:23:41.843Z,36.00
2018-01-14T03:26:09.347Z,37.30
2018-01-14T03:28:37.637Z,36.17
2018-01-14T03:31:05.115Z,41.63
2018-01-14T03:33:32.624Z,33.70
2018-01-14T03:36:00.104Z,30.40
2018-01-14T03:38:28.361Z,34.00
2018-01-14T03:40:55.856Z,32.63
2018-01-14T03:43:23.333Z,31.23
2018-01-14T03:45:50.837Z,28.10
2018-01-14T03:48:18.333Z,34.67
2018-01-14T03:50:45.818Z,32.57
2018-01-14T03:53:14.083Z,26.27
2018-01-14T03:55:41.571Z,28.53
2018-01-14T03:58:09.073Z,32.17
2018-01-14T04:00:36.564Z,27.90
2018-01-14T04:03:04.060Z,32.13
2018-01-14T04:05:32.326Z,37.47
2018-01-14T04:07:59.828Z,29.77
2018-01-14T04:10:27.299Z,32.43
2018-01-14T04:12:54.798Z,29.13
2018-01-14T04:15:22.302Z,35.90
2018-01-14T04:17:49.796Z,38.83
2018-01-14T04:20:17.279Z,33.40
2018-01-14T04:22:45.530Z,31.87
2018-01-14T04:25:13.038Z,20.37
2018-01-14T04:27:40.881Z,28.30
2018-01-14T04:30:08.372Z,36.97
2018-01-14T04:32:35.868Z,37.67
2018-01-14T04:35:03.376Z,31.60
2018-01-14T04:37:31.185Z,25.93
2018-01-14T04:39:58.674Z,41.27
2018-01-14T04:42:26.159Z,30.63
2018-01-14T04:44:54.425Z,36.67
2018-01-14T04:47:22.657Z,35.83
2018-01-14T04:49:50.140Z,30.97
2018-01-14T04:52:18.387Z,30.07
2018-01-14T04:54:45.877Z,37.33
2018-01-14T04:57:14.141Z,34.87
2018-01-14T04:59:42.163Z,25.37
2018-01-14T05:02:09.676Z,41.00
2018-01-14T05:04:37.963Z,36.00
2018-01-14T05:07:06.219Z,40.17
2018-01-14T05:09:33.690Z,37.23
2018-01-14T05:12:01.962Z,37.27
2018-01-14T05:14:29.477Z,34.50
2018-01-14T05:16:56.972Z,32.97
2018-01-14T05:19:24.475Z,37.10
2018-01-14T05:21:51.979Z,29.83
2018-01-14T05:24:19.452Z,34.67
2018-01-14T05:26:47.701Z,27.10
2018-01-14T05:29:15.210Z,38.90
2018-01-14T05:31:42.691Z,25.07
2018-01-14T05:34:10.170Z,34.40
2018-01-14T05:36:37.659Z,41.00
2018-01-14T05:39:05.145Z,29.50
2018-01-14T05:41:32.646Z,30.57
2018-01-14T05:44:00.145Z,29.47
2018-01-14T05:46:28.379Z,33.07
2018-01-14T05:48:55.863Z,32.30
2018-01-14T05:51:24.118Z,35.57
2018-01-14T05:53:51.620Z,25.00
2018-01-14T05:56:19.116Z,40.47
2018-01-14T05:58:46.611Z,33.10
2018-01-14T06:01:14.120Z,43.77
2018-01-14T06:03:41.604Z,40.63
2018-01-14T06:06:09.083Z,33.67
2018-01-14T06:08:37.338Z,35.23
2018-01-14T06:11:04.842Z,39.27
2018-01-14T06:13:32.331Z,26.13
2018-01-14T06:15:59.818Z,25.63
2018-01-14T06:18:27.295Z,32.07
2018-01-14T06:20:55.553Z,38.63
2018-01-14T06:23:23.020Z,37.37
2018-01-14T06:25:51.288Z,43.77
2018-01-14T06:28:18.762Z,32.83
2018-01-14T06:30:46.256Z,39.30
2018-01-14T06:33:13.768Z,37.47
2018-01-14T06:35:42.029Z,34.40
2018-01-14T06:38:09.518Z,44.37
2018-01-14T06:40:37.755Z,37.37
2018-01-14T06:43:05.249Z,36.93
2018-01-14T06:45:33.506Z,37.03
2018-01-14T06:48:01.004Z,34.40
2018-01-14T06:50:28.486Z,41.77
2018-01-14T06:52:55.988Z,41.17
2018-01-14T06:55:23.468Z,43.60
2018-01-14T06:57:50.954Z,34.90
2018-01-14T07:00:18.456Z,51.07
2018-01-14T07:02:45.961Z,40.53
2018-01-14T07:05:13.449Z,37.23
2018-01-14T07:07:40.949Z,38.17
2018-01-14T07:10:08.437Z,49.60
2018-01-14T07:12:35.932Z,38.00
2018-01-14T07:15:03.420Z,42.80
2018-01-14T07:17:31.671Z,40.20
2018-01-14T07:19:59.166Z,46.13
2018-01-14T07:22:26.667Z,46.10
2018-01-14T07:24:54.543Z,45.03
2018-01-14T07:27:22.035Z,46.83
2018-01-14T07:29:49.518Z,43.37
2018-01-14T07:32:17.065Z,36.57
2018-01-14T07:34:44.562Z,35.40
2018-01-14T07:37:12.048Z,49.00
2018-01-14T07:39:39.555Z,35.03
2018-01-14T07:42:07.935Z,35.17
2018-01-14T07:44:35.903Z,48.20
2018-01-14T07:47:03.408Z,40.27
2018-01-14T07:49:30.910Z,40.43
2018-01-14T07:51:58.475Z,56.83
2018-01-14T07:54:25.992Z,44.40
2018-01-14T07:56:54.266Z,29.67
2018-01-14T07:59:22.831Z,45.03
2018-01-14T08:01:50.326Z,48.60
2018-01-14T08:04:18.647Z,51.83
2018-01-14T08:06:46.155Z,43.97
2018-01-14T08:09:14.470Z,47.07
2018-01-14T08:11:41.955Z,45.27
2018-01-14T08:14:09.434Z,38.67
2018-01-14T08:16:36.983Z,48.30
2018-01-14T08:19:04.448Z,36.13
2018-01-14T08:21:32.263Z,49.20
2018-01-14T08:23:59.786Z,47.03
2018-01-14T08:26:27.288Z,48.43
2018-01-14T08:28:55.018Z,42.40
2018-01-14T08:31:22.491Z,43.63
2018-01-14T08:33:49.968Z,39.97
2018-01-14T08:36:17.513Z,44.33
2018-01-14T08:38:45.118Z,44.77
2018-01-14T08:41:12.643Z,48.73
2018-01-14T08:43:40.388Z,48.03
2018-01-14T08:46:08.631Z,49.80
2018-01-14T08:48:36.992Z,45.60
2018-01-14T08:51:04.505Z,40.30
2018-01-14T08:53:32.028Z,45.97
2018-01-14T08:56:00.304Z,40.63
2018-01-14T08:58:27.804Z,35.37
2018-01-14T09:00:55.314Z,51.70
2018-01-14T09:03:22.805Z,30.83
2018-01-14T09:05:51.226Z,40.77
2018-01-14T09:08:18.786Z,44.10
2018-01-14T09:10:46.341Z,55.23
2018-01-14T09:13:13.869Z,55.90
2018-01-14T09:15:41.381Z,46.33
2018-01-14T09:18:08.883Z,31.37
2018-01-14T09:20:36.354Z,34.80
2018-01-14T09:23:03.847Z,35.53
2018-01-14T09:25:31.338Z,34.43
2018-01-14T09:27:58.839Z,46.57
2018-01-14T09:30:38.185Z,51.47
2018-01-14T09:33:05.682Z,47.33
2018-01-14T09:35:33.414Z,40.87
2018-01-14T09:38:00.981Z,46.33
2018-01-14T09:40:28.515Z,53.17
2018-01-14T09:42:56.790Z,46.97
2018-01-14T09:45:24.273Z,48.70
2018-01-14T09:47:52.542Z,43.00
2018-01-14T09:50:20.056Z,37.37
2018-01-14T09:52:47.539Z,43.97
2018-01-14T09:55:15.052Z,50.10
2018-01-14T09:57:42.561Z,46.73
2018-01-14T10:00:10.052Z,40.30
2018-01-14T10:02:38.329Z,51.27
2018-01-14T10:05:06.589Z,51.43
2018-01-14T10:07:34.087Z,50.90
2018-01-14T10:10:01.575Z,51.07
2018-01-14T10:12:29.061Z,45.77
2018-01-14T10:14:57.335Z,41.87
2018-01-14T10:17:25.203Z,42.17
2018-01-14T10:19:52.719Z,42.10
2018-01-14T10:22:20.225Z,41.17
2018-01-14T10:24:47.734Z,31.43
2018-01-14T10:27:16.001Z,41.03
2018-01-14T10:29:43.488Z,31.93
2018-01-14T10:32:10.999Z,47.00
2018-01-14T10:34:38.495Z,47.57
2018-01-14T10:37:06.871Z,48.40
2018-01-14T10:39:34.370Z,34.03
2018-01-14T10:42:02.614Z,46.43
2018-01-14T10:44:30.110Z,28.70
2018-01-14T10:46:58.375Z,55.80
2018-01-14T10:49:25.917Z,45.30
2018-01-14T10:51:53.438Z,51.77
2018-01-14T10:54:20.922Z,32.90
2018-01-14T10:56:48.406Z,43.67
2018-01-14T10:59:16.687Z,35.10
2018-01-14T11:01:44.232Z,46.10
2018-01-14T11:04:11.720Z,37.70
2018-01-14T11:06:39.237Z,47.57
2018-01-14T11:09:06.737Z,39.63
2018-01-14T11:11:34.251Z,42.57
2018-01-14T11:14:01.735Z,39.10
2018-01-14T11:16:30.211Z,40.90
2018-01-14T11:18:58.464Z,43.37
2018-01-14T11:21:26.014Z,37.27
2018-01-14T11:23:53.502Z,37.93
2018-01-14T11:26:21.747Z,47.40
2018-01-14T11:28:53.074Z,42.20
2018-01-14T11:31:20.564Z,39.30
2018-01-14T11:33:48.053Z,35.43
2018-01-14T11:36:15.545Z,42.53
2018-01-14T11:38:43.061Z,38.97
2018-01-14T11:41:11.335Z,31.47
2018-01-14T11:43:39.584Z,39.80
2018-01-14T11:46:07.090Z,40.23
2018-01-14T11:48:34.613Z,34.37
2018-01-14T11:51:02.109Z,38.17
2018-01-14T11:53:29.615Z,39.57
2018-01-14T11:55:57.170Z,41.13
2018-01-14T11:58:24.745Z,36.30
2018-01-14T12:00:52.231Z,47.10
2018-01-14T12:03:19.744Z,35.50
2018-01-14T12:05:47.232Z,39.60
2018-01-14T12:08:14.937Z,40.60
2018-01-14T12:10:43.282Z,32.83
2018-01-14T12:13:10.941Z,41.93
2018-01-14T12:15:38.462Z,31.40
2018-01-14T12:18:05.957Z,40.47
2018-01-14T12:20:33.541Z,43.67
2018-01-14T12:23:01.053Z,39.20
2018-01-14T12:25:28.539Z,36.20
2018-01-14T12:27:56.077Z,40.27
2018-01-14T12:30:23.559Z,32.93
2018-01-14T12:33:00.814Z,31.90
2018-01-14T12:35:28.297Z,31.77
2018-01-14T12:37:55.827Z,39.43
2018-01-14T12:40:23.831Z,36.50
2018-01-14T12:42:51.329Z,38.90
2018-01-14T12:45:18.832Z,25.40
2018-01-14T12:47:46.388Z,34.43
2018-01-14T12:50:14.713Z,34.80
2018-01-14T12:52:43.013Z,36.57
2018-01-14T12:55:10.497Z,36.13
2018-01-14T12:57:38.753Z,36.40
2018-01-14T13:00:06.261Z,47.07
2018-01-14T13:02:33.776Z,30.30
2018-01-14T13:05:01.291Z,33.70
2018-01-14T13:07:28.779Z,38.83
2018-01-14T13:09:56.271Z,34.90
2018-01-14T13:12:24.569Z,40.43
2018-01-14T13:14:52.076Z,35.07
2018-01-14T13:17:19.948Z,38.73
2018-01-14T13:19:47.495Z,30.53
2018-01-14T13:22:15.022Z,35.17
2018-01-14T13:24:42.528Z,32.00
2018-01-14T13:27:10.314Z,42.47
2018-01-14T13:29:37.898Z,35.10
2018-01-14T13:32:05.413Z,38.43
2018-01-14T13:34:32.913Z,37.27
2018-01-14T13:37:00.483Z,27.90
2018-01-14T13:39:27.977Z,32.50
2018-01-14T13:41:55.546Z,34.60
2018-01-14T13:44:23.041Z,22.40
2018-01-14T13:46:50.623Z,37.87
2018-01-14T13:49:18.134Z,35.97
2018-01-14T13:51:46.030Z,35.77
2018-01-14T13:54:13.601Z,37.37
2018-01-14T13:56:41.082Z,32.40
2018-01-14T13:59:08.619Z,31.90
2018-01-14T14:01:36.127Z,30.80
2018-01-14T14:04:03.655Z,30.20
2018-01-14T14:06:31.213Z,29.43
2018-01-14T14:08:58.730Z,30.97
2018-01-14T14:11:26.263Z,32.27
2018-01-14T14:13:53.961Z,35.07
2018-01-14T14:16:22.389Z,39.37
2018-01-14T14:18:50.683Z,30.63
2018-01-14T14:21:18.195Z,29.03
2018-01-14T14:23:45.712Z,34.23
2018-01-14T14:26:14.261Z,29.57
2018-01-14T14:28:41.746Z,34.03
2018-01-14T14:31:09.274Z,27.83
2018-01-14T14:33:36.762Z,28.30
2018-01-14T14:36:05.033Z,34.77
2018-01-14T14:38:32.555Z,31.97
2018-01-14T14:41:00.053Z,32.57
2018-01-14T14:43:27.611Z,35.80
2018-01-14T14:45:55.084Z,26.73
2018-01-14T14:48:22.598Z,25.97
2018-01-14T14:50:50.104Z,32.80
2018-01-14T14:53:17.593Z,26.47
2018-01-14T14:55:45.101Z,29.77
2018-01-14T14:58:12.655Z,30.70
2018-01-14T15:00:40.111Z,23.77
2018-01-14T15:03:08.390Z,23.63
2018-01-14T15:05:36.702Z,23.60
2018-01-14T15:08:04.193Z,29.20
2018-01-14T15:10:31.704Z,35.63
2018-01-14T15:12:59.222Z,27.20
2018-01-14T15:15:26.727Z,23.70
2018-01-14T15:17:54.202Z,29.57
2018-01-14T15:20:21.729Z,31.30
2018-01-14T15:22:49.199Z,30.63
2018-01-14T15:25:16.682Z,31.63
2018-01-14T15:27:44.183Z,32.93
2018-01-14T15:30:11.790Z,38.67
2018-01-14T15:32:39.293Z,28.47
2018-01-14T15:35:07.582Z,34.27
2018-01-14T15:37:35.827Z,21.50
2018-01-14T15:40:03.321Z,33.77
2018-01-14T15:42:30.837Z,29.87
2018-01-14T15:44:58.335Z,31.43
2018-01-14T15:47:26.628Z,24.33
2018-01-14T15:49:54.126Z,28.00
2018-01-14T15:52:21.657Z,24.00
2018-01-14T15:54:49.152Z,23.77
2018-01-14T15:57:16.667Z,27.87
2018-01-14T15:59:44.176Z,28.37
2018-01-14T16:02:11.655Z,20.40
2018-01-14T16:04:39.180Z,29.57
2018-01-14T16:07:06.680Z,22.80
2018-01-14T16:09:34.200Z,26.20
2018-01-14T16:12:01.692Z,28.07
2018-01-14T16:14:29.945Z,27.30
2018-01-14T16:16:58.235Z,28.17
2018-01-14T16:19:26.529Z,29.00
2018-01-14T16:21:54.024Z,25.87
2018-01-14T16:24:21.538Z,27.90
2018-01-14T16:26:49.019Z,23.80
2018-01-14T16:29:16.536Z,30.37
2018-01-14T16:31:44.786Z,29.50
2018-01-14T16:34:12.341Z,28.73
2018-01-14T16:36:39.837Z,28.70
2018-01-14T16:39:08.115Z,31.67
2018-01-14T16:41:36.077Z,33.33
2018-01-14T16:44:04.379Z,30.40
2018-01-14T16:46:31.916Z,28.10
2018-01-14T16:49:00.419Z,29.20
2018-01-14T16:51:27.924Z,30.23
2018-01-14T16:53:56.400Z,33.77
2018-01-14T16:56:23.933Z,33.83
2018-01-14T16:58:51.501Z,31.70
2018-01-14T17:01:19.016Z,21.00
2018-01-14T17:03:47.285Z,24.47
2018-01-14T17:06:14.798Z,27.80
2018-01-14T17:08:42.515Z,32.53
2018-01-14T17:11:10.055Z,32.57
2018-01-14T17:13:38.301Z,28.83
2018-01-14T17:16:06.151Z,27.00
2018-01-14T17:18:33.661Z,21.70
2018-01-14T17:21:01.944Z,28.40
2018-01-14T17:23:30.186Z,23.33
2018-01-14T17:25:59.283Z,29.07
2018-01-14T17:28:26.798Z,23.30
2018-01-14T17:30:54.331Z,25.50
2018-01-14T17:33:22.617Z,23.80
2018-01-14T17:35:50.148Z,26.20
2018-01-14T17:38:17.690Z,27.77
2018-01-14T17:40:45.189Z,26.50
2018-01-14T17:43:12.727Z,26.13
2018-01-14T17:45:41.374Z,29.23
2018-01-14T17:48:08.858Z,25.07
2018-01-14T17:50:36.341Z,23.80
2018-01-14T17:53:04.596Z,24.80
2018-01-14T17:55:33.685Z,29.40
2018-01-14T17:58:02.807Z,25.70
2018-01-14T18:00:30.947Z,26.43
2018-01-14T18:02:59.387Z,27.70
2018-01-14T18:05:26.929Z,30.53
2018-01-14T18:07:54.422Z,23.97
2018-01-14T18:10:21.919Z,26.33
2018-01-14T18:12:50.193Z,26.03
2018-01-14T18:15:18.510Z,29.70
2018-01-14T18:17:46.045Z,28.13
2018-01-14T18:20:13.544Z,28.63
2018-01-14T18:22:41.030Z,23.63
2018-01-14T18:25:08.561Z,26.70
2018-01-14T18:27:36.072Z,25.93
2018-01-14T18:30:03.599Z,28.33
2018-01-14T18:32:31.844Z,32.70
2018-01-14T18:34:59.336Z,25.73
2018-01-14T18:37:26.825Z,31.40
2018-01-14T18:39:55.106Z,33.50
2018-01-14T18:42:22.622Z,25.90
2018-01-14T18:44:50.161Z,29.50
2018-01-14T18:47:17.672Z,28.60
2018-01-14T18:49:46.023Z,32.47
2018-01-14T18:52:13.652Z,35.57
2018-01-14T18:54:41.197Z,24.30
2018-01-14T18:57:09.012Z,26.07
2018-01-14T18:59:36.535Z,25.63
2018-01-14T19:02:04.051Z,26.37
2018-01-14T19:04:32.341Z,24.80
2018-01-14T19:06:59.886Z,21.80
2018-01-14T19:09:27.399Z,21.87
2018-01-14T19:11:54.876Z,23.20
2018-01-14T19:14:22.427Z,19.17
2018-01-14T19:16:49.923Z,20.63
2018-01-14T19:19:17.454Z,21.57
2018-01-14T19:21:44.944Z,27.73
2018-01-14T19:24:12.455Z,22.53
2018-01-14T19:26:40.026Z,24.10
2018-01-14T19:29:07.545Z,28.10
2018-01-14T19:31:35.063Z,21.13
2018-01-14T19:34:03.348Z,23.70
2018-01-14T19:36:31.616Z,26.80
2018-01-14T19:38:59.900Z,26.20
2018-01-14T19:41:28.161Z,24.60
2018-01-14T19:43:56.429Z,21.63
2018-01-14T19:46:23.926Z,23.03
2018-01-14T19:48:51.426Z,23.77
2018-01-14T19:51:18.935Z,21.27
2018-01-14T19:53:46.429Z,19.07
2018-01-14T19:56:14.258Z,24.43
2018-01-14T19:58:41.753Z,23.50
2018-01-14T20:01:09.246Z,23.57
2018-01-14T20:03:38.386Z,21.93
2018-01-14T20:06:05.919Z,19.23
2018-01-14T20:08:33.416Z,24.57
2018-01-14T20:11:00.925Z,23.60
2018-01-14T20:13:29.720Z,29.60
2018-01-14T20:15:57.268Z,22.80
2018-01-14T20:18:24.860Z,23.10
2018-01-14T20:20:52.393Z,22.47
2018-01-14T20:23:21.586Z,18.97
2018-01-14T20:25:49.829Z,23.83
2018-01-14T20:28:17.338Z,16.97
2018-01-14T20:30:44.832Z,21.70
2018-01-14T20:33:12.356Z,20.37
2018-01-14T20:35:40.650Z,17.40
2018-01-14T20:38:08.189Z,21.07
2018-01-14T20:40:35.721Z,19.63
2018-01-14T20:43:03.229Z,20.13
2018-01-14T20:45:30.719Z,22.17
2018-01-14T20:47:58.223Z,16.73
2018-01-14T20:50:25.713Z,18.93
2018-01-14T20:52:53.217Z,17.60
2018-01-14T20:55:21.477Z,16.03
2018-01-14T20:57:48.973Z,21.93
2018-01-14T21:00:16.496Z,18.10
2018-01-14T21:02:43.987Z,17.60
2018-01-14T21:05:11.506Z,17.90
2018-01-14T21:07:39.145Z,21.77
2018-01-14T21:10:06.967Z,23.77
2018-01-14T21:12:34.452Z,30.63
2018-01-14T21:15:01.974Z,22.37
2018-01-14T21:17:29.479Z,23.33
2018-01-14T21:19:56.994Z,31.23
2018-01-14T21:22:24.491Z,20.60
2018-01-14T21:24:51.994Z,24.10
2018-01-14T21:27:20.292Z,21.30
2018-01-14T21:29:47.854Z,29.20
2018-01-14T21:32:15.350Z,21.53
2018-01-14T21:34:44.238Z,21.23
2018-01-14T21:37:11.733Z,21.33
2018-01-14T21:39:40.007Z,22.80
2018-01-14T21:42:08.295Z,20.03
2018-01-14T21:44:36.564Z,22.73
2018-01-14T21:47:04.099Z,20.87
2018-01-14T21:49:31.637Z,22.30
2018-01-14T21:51:59.142Z,21.27
2018-01-14T21:54:27.422Z,25.97
2018-01-14T21:56:55.694Z,20.77
2018-01-14T21:59:23.278Z,18.57
2018-01-14T22:01:50.779Z,23.77
2018-01-14T22:04:18.527Z,25.60
2018-01-14T22:06:46.623Z,20.37
2018-01-14T22:09:14.140Z,20.70
2018-01-14T22:11:41.640Z,28.10
2018-01-14T22:14:09.176Z,23.13
2018-01-14T22:16:36.730Z,23.67
2018-01-14T22:19:04.240Z,30.53
2018-01-14T22:21:31.751Z,23.17
2018-01-14T22:23:59.267Z,20.17
2018-01-14T22:26:26.775Z,25.63
2018-01-14T22:28:54.286Z,19.53
2018-01-14T22:31:21.770Z,19.93
2018-01-14T22:33:49.289Z,25.37
2018-01-14T22:36:16.809Z,23.70
2018-01-14T22:38:44.290Z,22.20
2018-01-14T22:41:11.779Z,24.90
2018-01-14T22:43:39.378Z,21.27
2018-01-14T22:46:06.874Z,23.00
2018-01-14T22:48:35.156Z,20.73
2018-01-14T22:51:02.665Z,24.57
2018-01-14T22:53:30.913Z,27.03
2018-01-14T22:55:58.450Z,22.30
2018-01-14T22:58:26.701Z,21.80
2018-01-14T23:00:54.204Z,23.47
2018-01-14T23:03:21.699Z,24.67
2018-01-14T23:05:49.164Z,21.90
2018-01-14T23:08:16.683Z,22.67
2018-01-14T23:10:44.154Z,24.50
2018-01-14T23:13:11.680Z,22.40
2018-01-14T23:15:39.917Z,26.30
2018-01-14T23:18:07.392Z,25.27
2018-01-14T23:20:34.883Z,26.00
2018-01-14T23:23:02.366Z,28.30
2018-01-14T23:25:29.850Z,32.00
2018-01-14T23:27:57.382Z,31.47
2018-01-14T23:30:24.944Z,28.20
2018-01-14T23:32:52.511Z,29.70
2018-01-14T23:35:20.111Z,30.00
2018-01-14T23:37:56.623Z,28.97
2018-01-14T23:40:34.790Z,31.60
2018-01-14T23:43:02.359Z,22.83
2018-01-14T23:45:29.870Z,20.80
2018-01-14T23:47:57.486Z,23.40
2018-01-14T23:50:25.066Z,23.60
2018-01-14T23:52:52.588Z,29.90
2018-01-14T23:55:20.134Z,23.97
2018-01-14T23:57:48.488Z,24.97
